Time;durP1;ratioP1;P1;durP2;ratioP2;P2;SDS_P1;SDS_P2;PMS_P1;PMS_P2;Temp;Humidity;BMP_temperature;BMP_pressure;BME280_temperature;BME280_humidity;BME280_pressure;Samples;Min_cycle;Max_cycle;Signal;HPM_P1;HPM_P2
2021/12/08 00:00:53;;;;;;;4.07;2.55;;;4.00;99.90;;;;;;5035566;28;20074;-59
2021/12/08 00:03:20;;;;;;;7.93;3.17;;;4.10;99.90;;;;;;5034612;28;20049;-58
2021/12/08 00:05:47;;;;;;;10.48;4.00;;;3.80;99.90;;;;;;5034253;28;20049;-59
2021/12/08 00:08:16;;;;;;;10.15;4.45;;;3.90;99.90;;;;;;5034337;28;20077;-60
2021/12/08 00:13:28;;;;;;;14.60;5.00;;;4.00;99.90;;;;;;5034118;28;20045;-59
2021/12/08 00:15:59;;;;;;;6.78;2.92;;;4.10;99.90;;;;;;5035285;28;20042;-59
2021/12/08 00:18:28;;;;;;;9.57;3.70;;;3.90;99.90;;;;;;5034312;28;20045;-59
2021/12/08 00:20:57;;;;;;;8.00;3.45;;;3.90;99.90;;;;;;5033679;28;20099;-60
2021/12/08 00:23:24;;;;;;;3.90;3.50;;;4.00;99.90;;;;;;5035314;28;20045;-58
2021/12/08 00:25:51;;;;;;;6.78;3.53;;;4.00;99.90;;;;;;5034202;28;20128;-58
2021/12/08 00:28:17;;;;;;;12.43;4.38;;;4.00;99.90;;;;;;5034060;28;20403;-59
2021/12/08 00:30:46;;;;;;;8.93;3.60;;;4.00;99.90;;;;;;5033556;28;20041;-58
2021/12/08 00:33:13;;;;;;;8.52;3.00;;;4.00;99.90;;;;;;5035086;28;20076;-59
2021/12/08 00:35:40;;;;;;;7.32;3.63;;;4.00;99.90;;;;;;5033661;28;20037;-59
2021/12/08 00:38:07;;;;;;;10.43;4.75;;;4.00;99.90;;;;;;5033399;28;20038;-59
2021/12/08 00:40:34;;;;;;;13.52;3.75;;;4.00;99.90;;;;;;5035022;28;20043;-59
2021/12/08 00:43:00;;;;;;;9.63;3.35;;;4.00;99.90;;;;;;5034779;28;20041;-57
2021/12/08 00:45:26;;;;;;;12.63;4.18;;;4.00;99.90;;;;;;5033436;28;20053;-59
2021/12/08 00:47:58;;;;;;;12.18;4.32;;;4.00;99.90;;;;;;5034549;28;20132;-58
2021/12/08 00:50:27;;;;;;;8.02;4.30;;;;;;;;;;5033194;28;20077;-59
2021/12/08 00:52:52;;;;;;;7.90;4.22;;;4.00;99.90;;;;;;5033996;28;20099;-59
2021/12/08 00:55:20;;;;;;;10.23;4.72;;;4.10;99.90;;;;;;5033400;28;20037;-59
2021/12/08 00:57:46;;;;;;;11.77;4.75;;;3.80;99.90;;;;;;5034472;28;20046;-58
2021/12/08 01:00:21;;;;;;;8.45;4.35;;;4.10;99.90;;;;;;5034282;28;20084;-59
2021/12/08 01:02:47;;;;;;;8.13;4.90;;;3.80;99.90;;;;;;5033212;28;20045;-59
2021/12/08 01:05:17;;;;;;;10.48;6.03;;;4.10;99.90;;;;;;5034269;28;20042;-59
2021/12/08 01:07:42;;;;;;;9.02;4.25;;;4.10;99.90;;;;;;5032941;28;20049;-58
2021/12/08 01:10:12;;;;;;;10.77;4.57;;;4.00;99.90;;;;;;5032812;28;20064;-59
2021/12/08 01:12:37;;;;;;;10.25;4.95;;;4.00;99.90;;;;;;5034300;28;20037;-58
2021/12/08 01:15:04;;;;;;;13.35;5.45;;;4.00;99.90;;;;;;5032818;28;20041;-60
2021/12/08 01:17:30;;;;;;;12.73;5.50;;;4.00;99.90;;;;;;5032732;28;20044;-59
2021/12/08 01:19:56;;;;;;;9.20;5.00;;;4.20;99.90;;;;;;5033926;28;20496;-59
2021/12/08 01:22:21;;;;;;;9.02;5.10;;;4.10;99.90;;;;;;5033894;28;20407;-59
2021/12/08 01:24:47;;;;;;;11.07;5.30;;;;;;;;;;5034016;28;20056;-58
2021/12/08 01:27:13;;;;;;;17.08;5.57;;;4.10;99.90;;;;;;5033010;28;20049;-59
2021/12/08 01:29:39;;;;;;;7.05;4.00;;;4.20;99.90;;;;;;5032472;28;20069;-59
2021/12/08 01:32:07;;;;;;;11.35;5.03;;;4.10;99.90;;;;;;5032436;28;20129;-59
2021/12/08 01:34:32;;;;;;;11.75;5.47;;;4.10;99.90;;;;;;5033834;28;20042;-59
2021/12/08 01:36:58;;;;;;;8.23;5.32;;;4.20;99.90;;;;;;5034036;28;20443;-60
2021/12/08 01:39:24;;;;;;;10.98;6.07;;;4.20;99.90;;;;;;5033696;28;20038;-58
2021/12/08 01:41:52;;;;;;;13.20;5.15;;;4.30;99.90;;;;;;5033690;28;20045;-59
2021/12/08 01:47:03;;;;;;;10.60;5.72;;;4.20;99.90;;;;;;5033689;28;20049;-59
2021/12/08 01:49:28;;;;;;;11.77;5.97;;;4.20;99.90;;;;;;5032040;28;20041;-59
2021/12/08 01:51:54;;;;;;;9.88;5.75;;;4.30;99.90;;;;;;5032204;28;20126;-60
2021/12/08 01:54:19;;;;;;;8.57;5.00;;;4.40;99.90;;;;;;5032205;28;20037;-59
2021/12/08 01:56:45;;;;;;;9.93;6.60;;;4.20;99.90;;;;;;5033338;28;20061;-58
2021/12/08 01:59:11;;;;;;;15.20;6.40;;;;;;;;;;5033134;28;20188;-59
2021/12/08 02:01:43;;;;;;;11.73;6.35;;;4.00;99.90;;;;;;5031929;28;20049;-60
2021/12/08 02:04:10;;;;;;;14.63;6.85;;;4.20;99.90;;;;;;5036717;28;20112;-59
2021/12/08 02:06:43;;;;;;;11.23;7.10;;;4.30;99.90;;;;;;5051820;28;20060;-59
2021/12/08 02:09:13;;;;;;;9.57;5.03;;;4.40;99.90;;;;;;5051854;28;20045;-58
2021/12/08 02:11:42;;;;;;;10.82;6.03;;;4.30;99.90;;;;;;5052889;28;20049;-59
2021/12/08 02:14:08;;;;;;;11.38;7.10;;;4.30;99.90;;;;;;5051748;28;20041;-59
2021/12/08 02:16:34;;;;;;;14.13;6.78;;;;;;;;;;5053005;28;20041;-59
2021/12/08 02:19:00;;;;;;;12.70;6.80;;;4.30;99.90;;;;;;5053374;28;20041;-59
2021/12/08 02:21:38;;;;;;;11.70;6.82;;;4.30;99.90;;;;;;5051739;28;20045;-58
2021/12/08 02:24:07;;;;;;;9.55;6.50;;;4.10;99.90;;;;;;5052027;28;20040;-58
2021/12/08 02:26:34;;;;;;;9.32;7.10;;;4.30;99.90;;;;;;5052730;28;20037;-59
2021/12/08 02:29:03;;;;;;;11.77;6.88;;;4.30;99.90;;;;;;5035075;28;20048;-58
2021/12/08 02:31:41;;;;;;;12.07;7.80;;;;;;;;;;5052880;28;20041;-59
2021/12/08 02:47:53;;;;;;;13.90;8.20;;;4.30;99.90;;;;;;5052884;28;20050;-59
2021/12/08 02:50:48;;;;;;;12.88;8.38;;;4.50;99.90;;;;;;5034949;28;20571;-59
2021/12/08 02:53:15;;;;;;;10.27;8.00;;;4.60;99.90;;;;;;5032624;28;20108;-59
2021/12/08 02:55:42;;;;;;;11.90;9.07;;;4.60;99.90;;;;;;5045322;28;20038;-59
2021/12/08 02:58:08;;;;;;;13.52;7.82;;;4.70;99.90;;;;;;5032834;28;20522;-58
2021/12/08 03:00:40;;;;;;;12.57;7.95;;;4.70;99.90;;;;;;5032844;28;20044;-59
2021/12/08 03:03:06;;;;;;;11.50;7.95;;;;;;;;;;5031438;28;20076;-59
2021/12/08 03:05:33;;;;;;;15.30;8.93;;;4.60;99.90;;;;;;5032752;28;20045;-59
2021/12/08 03:07:59;;;;;;;14.48;9.82;;;4.90;99.90;;;;;;5031362;28;20045;-58
2021/12/08 03:10:29;;;;;;;15.52;9.48;;;4.70;99.90;;;;;;5031335;28;20095;-60
2021/12/08 03:12:55;;;;;;;13.25;9.50;;;4.70;99.90;;;;;;5031301;28;20064;-59
2021/12/08 03:15:21;;;;;;;19.40;9.45;;;4.70;99.90;;;;;;5032716;28;20037;-59
2021/12/08 03:17:47;;;;;;;14.73;10.23;;;4.70;99.90;;;;;;5035072;28;20041;-59
2021/12/08 03:20:16;;;;;;;12.48;8.52;;;4.70;99.90;;;;;;5034841;28;20052;-60
2021/12/08 03:22:46;;;;;;;16.30;10.32;;;4.90;99.90;;;;;;5034856;28;20116;-58
2021/12/08 03:25:17;;;;;;;17.40;9.95;;;4.80;99.90;;;;;;5036430;28;20033;-59
2021/12/08 03:27:53;;;;;;;16.17;10.95;;;4.80;99.90;;;;;;5036217;28;20439;-59
2021/12/08 03:30:25;;;;;;;12.60;9.43;;;4.70;99.90;;;;;;5034924;28;20098;-59
2021/12/08 03:32:56;;;;;;;13.93;10.27;;;4.70;99.90;;;;;;5036120;28;20042;-60
2021/12/08 03:35:22;;;;;;;14.77;9.93;;;4.80;99.90;;;;;;5034638;28;20130;-58
2021/12/08 03:37:48;;;;;;;19.08;10.73;;;5.20;99.90;;;;;;5036130;28;20497;-58
2021/12/08 03:40:18;;;;;;;16.00;9.73;;;4.90;99.90;;;;;;5034830;28;20392;-59
2021/12/08 03:42:46;;;;;;;14.02;10.63;;;4.90;99.90;;;;;;5036230;28;20048;-58
2021/12/08 03:45:34;;;;;;;17.02;10.85;;;4.80;99.90;;;;;;5034561;28;20565;-59
2021/12/08 03:48:08;;;;;;;14.00;9.75;;;4.90;99.90;;;;;;5034642;28;20076;-58
2021/12/08 03:50:37;;;;;;;17.10;10.65;;;4.90;99.90;;;;;;5034443;28;20042;-59
2021/12/08 03:53:04;;;;;;;14.10;11.02;;;4.80;99.90;;;;;;5036000;28;20033;-59
2021/12/08 03:55:30;;;;;;;18.85;10.95;;;4.90;99.90;;;;;;5034402;28;20041;-59
2021/12/08 03:57:55;;;;;;;14.80;10.20;;;4.80;99.90;;;;;;5034570;28;20059;-59
2021/12/08 04:00:24;;;;;;;16.02;10.15;;;5.00;99.90;;;;;;5034436;28;20121;-60
2021/12/08 04:02:50;;;;;;;14.02;10.52;;;5.10;99.90;;;;;;5035523;28;20099;-60
2021/12/08 04:05:30;;;;;;;16.80;10.80;;;5.10;99.90;;;;;;5034518;28;20099;-60
2021/12/08 04:08:02;;;;;;;14.85;10.70;;;5.30;99.90;;;;;;5035678;28;20052;-59
2021/12/08 04:10:28;;;;;;;15.65;10.95;;;5.20;99.90;;;;;;5035292;28;20037;-59
2021/12/08 04:12:55;;;;;;;16.60;10.38;;;5.20;99.90;;;;;;5035361;28;20450;-58
2021/12/08 04:15:23;;;;;;;14.63;10.30;;;5.30;99.90;;;;;;5034126;28;20120;-59
2021/12/08 04:17:52;;;;;;;14.57;9.05;;;5.20;99.90;;;;;;5034279;28;20120;-59
2021/12/08 04:20:29;;;;;;;15.35;11.48;;;5.30;99.90;;;;;;5035208;28;20038;-60
2021/12/08 04:22:57;;;;;;;13.35;10.10;;;5.20;99.90;;;;;;5034172;28;20509;-60
2021/12/08 04:25:28;;;;;;;14.63;10.13;;;5.30;99.90;;;;;;5035147;28;20037;-60
2021/12/08 04:27:56;;;;;;;17.35;11.52;;;5.40;99.90;;;;;;5033065;28;20499;-59
2021/12/08 04:30:27;;;;;;;16.90;10.55;;;5.30;99.90;;;;;;5017423;28;20060;-59
2021/12/08 04:32:53;;;;;;;18.33;11.75;;;5.20;99.90;;;;;;5035329;28;20037;-59
2021/12/08 04:35:20;;;;;;;13.57;9.85;;;5.50;99.90;;;;;;5053423;28;20547;-60
2021/12/08 04:37:51;;;;;;;20.52;11.43;;;5.40;99.90;;;;;;5053968;28;20436;-60
2021/12/08 04:43:09;;;;;;;17.50;10.32;;;5.60;99.90;;;;;;5053442;28;20388;-59
2021/12/08 04:45:56;;;;;;;15.80;9.02;;;5.60;99.90;;;;;;5053745;28;20045;-60
2021/12/08 05:09:51;;;;;;;18.67;9.35;;;5.70;99.90;;;;;;5033270;28;20495;-59
2021/12/08 05:12:21;;;;;;;14.52;8.38;;;;;;;;;;5028721;28;20033;-62
2021/12/08 05:14:56;;;;;;;13.85;9.18;;;5.90;99.90;;;;;;5017569;28;20500;-61
2021/12/08 05:17:29;;;;;;;14.20;8.93;;;;;;;;;;5012522;28;20056;-61
2021/12/08 05:19:57;;;;;;;16.80;9.45;;;;;;;;;;5012274;28;20556;-59
2021/12/08 05:22:28;;;;;;;14.15;8.73;;;;;;;;;;5012345;28;20049;-61
2021/12/08 05:24:56;;;;;;;16.33;10.35;;;5.40;99.90;;;;;;5013629;28;20046;-61
2021/12/08 05:27:26;;;;;;;16.25;9.23;;;5.40;99.90;;;;;;5011975;28;20060;-60
2021/12/08 05:29:54;;;;;;;12.82;9.05;;;5.60;99.90;;;;;;5013021;28;20132;-62
2021/12/08 05:32:20;;;;;;;14.13;9.05;;;5.40;99.90;;;;;;5011700;28;20053;-60
2021/12/08 05:34:47;;;;;;;15.80;9.77;;;5.60;99.90;;;;;;5012931;28;20508;-60
2021/12/08 05:37:15;;;;;;;13.55;9.23;;;5.60;99.90;;;;;;5011867;28;20042;-62
2021/12/08 05:39:43;;;;;;;18.52;9.18;;;5.60;99.90;;;;;;5012803;28;20483;-61
2021/12/08 05:42:14;;;;;;;11.63;9.05;;;5.80;99.90;;;;;;5012813;28;20488;-62
2021/12/08 05:44:40;;;;;;;19.75;8.82;;;;;;;;;;5009132;28;20050;-62
2021/12/08 05:47:14;;;;;;;13.13;8.30;;;5.50;99.90;;;;;;5009601;28;20042;-62
2021/12/08 05:49:41;;;;;;;12.73;9.20;;;5.50;99.90;;;;;;5010417;28;20085;-60
2021/12/08 05:52:08;;;;;;;17.30;9.45;;;5.50;99.90;;;;;;5012752;28;20488;-61
2021/12/08 05:54:38;;;;;;;15.38;9.10;;;5.40;99.90;;;;;;5012901;28;20381;-60
2021/12/08 05:57:16;;;;;;;13.38;9.57;;;;;;;;;;5012589;28;20038;-60
2021/12/08 05:59:42;;;;;;;15.82;9.63;;;5.30;99.90;;;;;;5026591;28;20041;-61
2021/12/08 06:02:11;;;;;;;14.05;8.93;;;;;;;;;;5032306;28;20048;-59
2021/12/08 06:04:37;;;;;;;15.18;8.77;;;5.30;99.90;;;;;;5031090;28;20049;-59
2021/12/08 06:07:04;;;;;;;13.48;9.13;;;;;;;;;;5032152;28;20124;-61
2021/12/08 06:09:31;;;;;;;14.40;9.18;;;;;;;;;;5029110;28;20045;-62
2021/12/08 06:11:57;;;;;;;15.38;8.32;;;;;;;;;;5031319;28;20049;-62
2021/12/08 06:14:25;;;;;;;12.77;8.20;;;;;;;;;;5049010;28;20460;-62
2021/12/08 06:16:52;;;;;;;15.80;8.40;;;;;;;;;;5047147;28;20041;-62
2021/12/08 06:19:19;;;;;;;17.73;8.50;;;;;;;;;;5048867;28;20124;-61
2021/12/08 06:21:45;;;;;;;16.67;9.85;;;;;;;;;;5048179;28;20049;-63
2021/12/08 06:24:12;;;;;;;13.90;8.10;;;;;;;;;;5044017;28;20084;-61
2021/12/08 06:26:38;;;;;;;14.27;9.07;;;;;;;;;;5043738;28;20055;-61
2021/12/08 06:29:06;;;;;;;12.27;8.25;;;5.10;99.90;;;;;;5044032;28;20548;-61
2021/12/08 06:31:34;;;;;;;11.70;7.88;;;;;;;;;;5044798;28;20041;-60
2021/12/08 06:34:01;;;;;;;16.58;8.55;;;;;;;;;;5047776;28;20419;-60
2021/12/08 06:36:29;;;;;;;11.55;7.72;;;;;;;;;;5047532;28;20608;-62
2021/12/08 06:38:56;;;;;;;13.68;6.85;;;5.10;99.90;;;;;;5051527;28;20399;-61
2021/12/08 06:41:43;;;;;;;19.30;9.38;;;4.90;99.90;;;;;;5050408;28;20041;-60
2021/12/08 06:44:14;;;;;;;15.60;8.25;;;5.10;99.90;;;;;;5048547;28;20071;-62
2021/12/08 06:46:41;;;;;;;12.60;7.47;;;5.10;99.90;;;;;;5047610;28;20051;-61
2021/12/08 06:49:09;;;;;;;13.52;7.47;;;5.00;99.90;;;;;;5051125;28;20092;-61
2021/12/08 06:51:45;;;;;;;10.63;6.63;;;;;;;;;;5027540;28;20053;-60
2021/12/08 06:54:18;;;;;;;15.07;6.82;;;5.00;99.90;;;;;;5034026;28;20125;-61
2021/12/08 06:56:54;;;;;;;12.73;6.15;;;5.10;99.90;;;;;;5036657;28;20041;-60
2021/12/08 06:59:22;;;;;;;8.00;5.82;;;5.10;99.90;;;;;;5029476;28;20492;-60
2021/12/08 07:02:04;;;;;;;13.07;6.10;;;5.10;99.90;;;;;;5035457;28;20052;-60
2021/12/08 07:07:40;;;;;;;10.05;6.20;;;5.10;99.90;;;;;;5016046;28;20215;-60
2021/12/08 07:10:19;;;;;;;13.00;6.55;;;5.20;99.90;;;;;;5034091;28;20071;-60
2021/12/08 07:12:52;;;;;;;12.75;6.20;;;4.90;99.90;;;;;;5030538;28;20222;-60
2021/12/08 07:15:26;;;;;;;9.20;5.85;;;4.90;99.90;;;;;;5035638;28;20040;-60
2021/12/08 07:17:57;;;;;;;8.43;6.23;;;;;;;;;;5034862;28;20068;-60
2021/12/08 07:20:45;;;;;;;13.52;5.80;;;4.90;99.90;;;;;;5034009;28;20041;-60
2021/12/08 07:23:26;;;;;;;8.68;5.40;;;4.90;99.90;;;;;;5034175;28;20087;-62
2021/12/08 07:25:54;;;;;;;15.27;6.00;;;4.80;99.90;;;;;;5036236;28;20047;-61
2021/12/08 07:28:22;;;;;;;11.80;5.88;;;;;;;;;;5033553;28;20048;-60
2021/12/08 07:30:59;;;;;;;13.48;5.35;;;4.90;99.90;;;;;;5030233;28;20498;-61
2021/12/08 07:33:26;;;;;;;9.48;5.30;;;5.00;99.90;;;;;;5034074;28;20052;-60
2021/12/08 07:35:55;;;;;;;13.52;5.20;;;4.80;99.90;;;;;;5037816;28;20045;-60
2021/12/08 07:38:25;;;;;;;9.20;4.72;;;4.90;99.90;;;;;;5044821;28;20491;-62
2021/12/08 07:40:55;;;;;;;14.30;7.03;;;5.00;99.90;;;;;;5043122;28;20453;-61
2021/12/08 07:43:25;;;;;;;9.30;4.70;;;4.90;99.90;;;;;;5045279;28;20083;-60
2021/12/08 07:46:03;;;;;;;8.13;3.58;;;4.80;99.90;;;;;;5048105;28;20037;-60
2021/12/08 07:48:34;;;;;;;10.45;3.55;;;5.00;99.90;;;;;;5041558;28;20050;-61
2021/12/08 07:51:28;;;;;;;9.65;3.78;;;5.10;99.90;;;;;;5041949;28;20041;-60
2021/12/08 07:53:54;;;;;;;6.97;3.33;;;5.00;99.90;;;;;;5045222;28;20072;-60
2021/12/08 07:56:22;;;;;;;8.57;2.95;;;5.00;99.90;;;;;;5043992;28;20083;-61
2021/12/08 07:58:52;;;;;;;6.88;2.80;;;5.00;99.90;;;;;;5047068;28;20528;-61
2021/12/08 08:01:24;;;;;;;13.77;4.13;;;5.20;99.90;;;;;;5039299;28;20045;-60
2021/12/08 08:03:51;;;;;;;10.07;3.08;;;5.10;99.90;;;;;;5033023;28;20056;-61
2021/12/08 08:06:29;;;;;;;6.63;2.88;;;5.10;99.90;;;;;;5037879;28;20041;-61
2021/12/08 08:08:55;;;;;;;9.43;3.22;;;5.10;99.90;;;;;;5035381;28;20077;-63
2021/12/08 08:11:30;;;;;;;12.63;3.80;;;5.10;99.90;;;;;;5031928;28;20091;-63
2021/12/08 08:13:57;;;;;;;6.53;3.13;;;5.20;99.90;;;;;;5027844;28;20084;-62
2021/12/08 08:16:26;;;;;;;10.15;2.92;;;;;;;;;;5043925;28;20033;-63
2021/12/08 08:19:03;;;;;;;6.78;3.15;;;5.10;99.90;;;;;;5041805;28;20036;-62
2021/12/08 08:21:32;;;;;;;8.10;3.03;;;5.10;99.90;;;;;;5039713;28;20402;-62
2021/12/08 08:24:00;;;;;;;7.35;3.00;;;5.00;99.90;;;;;;5038836;28;20056;-63
2021/12/08 08:26:27;;;;;;;8.55;3.40;;;5.20;99.90;;;;;;5038692;28;20112;-63
2021/12/08 08:28:53;;;;;;;13.20;3.20;;;;;;;;;;5045580;28;20049;-63
2021/12/08 08:31:28;;;;;;;9.25;3.10;;;;;;;;;;5039497;28;20033;-60
2021/12/08 08:33:54;;;;;;;8.68;2.95;;;;;;;;;;5042858;28;20044;-63
2021/12/08 08:36:29;;;;;;;7.93;3.13;;;5.40;99.90;;;;;;5040846;28;20041;-62
2021/12/08 08:38:57;;;;;;;8.65;2.90;;;5.30;99.90;;;;;;5042091;28;20061;-61
2021/12/08 08:41:29;;;;;;;8.40;2.53;;;;;;;;;;5043689;28;20075;-62
2021/12/08 08:43:59;;;;;;;8.27;3.25;;;5.50;99.90;;;;;;5039161;28;20044;-62
2021/12/08 08:46:29;;;;;;;9.00;3.13;;;5.50;99.90;;;;;;5043030;28;20065;-61
2021/12/08 08:48:59;;;;;;;10.05;2.35;;;5.50;99.90;;;;;;5041724;28;20057;-62
2021/12/08 08:51:39;;;;;;;10.50;2.70;;;5.60;99.90;;;;;;5043949;28;20408;-62
2021/12/08 08:54:09;;;;;;;13.98;3.20;;;5.50;99.90;;;;;;5036723;28;20455;-61
2021/12/08 08:56:40;;;;;;;6.60;2.22;;;5.70;99.90;;;;;;5041205;28;20048;-62
2021/12/08 08:59:12;;;;;;;7.15;2.58;;;5.60;99.90;;;;;;5043446;28;20045;-62
2021/12/08 09:01:43;;;;;;;8.82;2.50;;;5.50;99.90;;;;;;5044330;28;20036;-61
2021/12/08 09:04:15;;;;;;;9.02;2.95;;;;;;;;;;5044939;28;20052;-62
2021/12/08 09:06:46;;;;;;;9.00;2.72;;;5.60;99.90;;;;;;5040617;28;20048;-62
2021/12/08 09:09:20;;;;;;;9.82;2.00;;;5.50;99.90;;;;;;5045052;28;20045;-57
2021/12/08 09:11:52;;;;;;;10.80;2.95;;;;;;;;;;5047072;28;20048;-60
2021/12/08 09:14:28;;;;;;;10.15;2.67;;;;;;;;;;5044671;28;20045;-62
2021/12/08 09:16:59;;;;;;;7.43;2.20;;;5.70;99.90;;;;;;5040705;28;20041;-62
2021/12/08 09:19:44;;;;;;;10.27;2.60;;;5.40;99.90;;;;;;5046063;28;20041;-60
2021/12/08 09:22:27;;;;;;;6.18;2.67;;;5.60;99.90;;;;;;5043280;28;20036;-60
2021/12/08 09:24:58;;;;;;;6.72;2.55;;;5.50;99.90;;;;;;5042352;28;20049;-60
2021/12/08 09:27:30;;;;;;;14.10;2.97;;;5.50;99.90;;;;;;5039310;28;20036;-57
2021/12/08 09:30:21;;;;;;;6.70;2.92;;;5.80;99.90;;;;;;5045360;28;20071;-61
2021/12/08 09:32:49;;;;;;;13.32;2.70;;;;;;;;;;5028405;28;20046;-60
2021/12/08 09:35:25;;;;;;;7.95;2.65;;;5.60;99.90;;;;;;5031992;28;20407;-58
2021/12/08 09:38:05;;;;;;;8.60;2.78;;;5.80;99.90;;;;;;5028938;28;20044;-61
2021/12/08 09:40:33;;;;;;;10.75;3.05;;;5.90;99.90;;;;;;5030463;28;20037;-60
2021/12/08 09:43:02;;;;;;;7.10;3.00;;;;;;;;;;5031456;28;20095;-58
2021/12/08 09:45:28;;;;;;;12.13;2.67;;;;;;;;;;5037452;28;20102;-61
2021/12/08 09:47:54;;;;;;;10.60;2.63;;;5.70;99.90;;;;;;5033791;28;20065;-60
2021/12/08 09:50:20;;;;;;;10.43;3.08;;;;;;;;;;5032072;28;20089;-61
2021/12/08 09:52:47;;;;;;;12.00;3.00;;;;;;;;;;5031417;28;20418;-62
2021/12/08 09:55:16;;;;;;;11.15;3.10;;;6.10;99.90;;;;;;5031224;28;20056;-62
2021/12/08 09:57:42;;;;;;;15.60;3.67;;;6.00;99.90;;;;;;5029677;28;20055;-62
2021/12/08 10:00:15;;;;;;;8.32;2.40;;;6.10;99.90;;;;;;5028535;28;20033;-61
2021/12/08 10:02:41;;;;;;;8.20;2.50;;;6.00;99.90;;;;;;5029909;28;20049;-61
2021/12/08 10:05:13;;;;;;;5.85;2.88;;;;;;;;;;5031524;28;20073;-61
2021/12/08 10:07:40;;;;;;;12.05;2.63;;;;;;;;;;5025538;28;20049;-62
2021/12/08 10:10:07;;;;;;;7.57;2.60;;;;;;;;;;5029665;28;20100;-59
2021/12/08 10:12:34;;;;;;;12.35;3.28;;;6.30;99.90;;;;;;5030916;28;20480;-61
2021/12/08 10:15:01;;;;;;;6.72;2.70;;;;;;;;;;5031308;28;20411;-61
2021/12/08 10:17:27;;;;;;;14.50;2.55;;;;;;;;;;5034035;28;20045;-62
2021/12/08 10:20:14;;;;;;;15.00;2.88;;;6.50;99.90;;;;;;5032132;28;20046;-58
2021/12/08 10:22:42;;;;;;;12.90;2.40;;;6.70;99.90;;;;;;5038990;28;20037;-60
2021/12/08 10:25:16;;;;;;;8.20;2.60;;;;;;;;;;5027176;28;20496;-61
2021/12/08 10:28:02;;;;;;;8.53;2.20;;;;;;;;;;5030745;28;20492;-62
2021/12/08 10:30:28;;;;;;;7.63;2.42;;;6.70;99.90;;;;;;5032506;28;20346;-59
2021/12/08 10:32:54;;;;;;;12.20;2.85;;;6.70;99.90;;;;;;5046090;28;20037;-61
2021/12/08 10:36:00;;;;;;;6.97;2.55;;;6.50;99.90;;;;;;5029821;28;20041;-64
2021/12/08 10:38:35;;;;;;;11.27;2.33;;;;;;;;;;5030792;28;20049;-60
2021/12/08 10:41:04;;;;;;;7.93;2.85;;;6.80;99.90;;;;;;5030717;28;20049;-59
2021/12/08 10:43:30;;;;;;;11.40;2.67;;;;;;;;;;5029396;28;20124;-62
2021/12/08 10:46:07;;;;;;;11.10;2.47;;;6.70;99.90;;;;;;5038584;28;20041;-57
2021/12/08 10:48:38;;;;;;;4.60;1.98;;;;;;;;;;5041959;28;20061;-55
2021/12/08 10:54:26;;;;;;;9.00;2.80;;;6.50;99.90;;;;;;5042531;28;20044;-61
2021/12/08 10:56:56;;;;;;;6.78;2.13;;;;;;;;;;5043119;28;20041;-62
2021/12/08 10:59:23;;;;;;;10.90;3.17;;;;;;;;;;5035195;28;20069;-62
2021/12/08 11:01:48;;;;;;;7.75;2.38;;;6.60;99.90;;;;;;5038695;28;20053;-63
2021/12/08 11:04:16;;;;;;;14.70;2.78;;;;;;;;;;5037835;28;20056;-65
2021/12/08 11:06:42;;;;;;;11.98;2.30;;;6.70;99.90;;;;;;5041215;28;20067;-62
2021/12/08 11:09:17;;;;;;;6.10;2.15;;;6.70;99.90;;;;;;5041373;28;20068;-61
2021/12/08 11:11:44;;;;;;;8.45;2.67;;;6.70;99.90;;;;;;5037214;28;20046;-62
2021/12/08 11:14:11;;;;;;;9.68;2.88;;;6.70;99.90;;;;;;5043032;28;20100;-61
2021/12/08 11:16:39;;;;;;;7.75;2.63;;;6.70;99.90;;;;;;5043681;28;20040;-62
2021/12/08 11:19:13;;;;;;;12.52;3.33;;;6.80;99.90;;;;;;5044234;28;20041;-62
2021/12/08 11:21:45;;;;;;;9.23;2.72;;;;;;;;;;5026494;28;20587;-64
2021/12/08 11:24:21;;;;;;;9.82;2.20;;;6.80;99.90;;;;;;5042199;28;20040;-63
2021/12/08 11:26:49;;;;;;;9.00;2.30;;;6.60;99.90;;;;;;5041860;28;20044;-62
2021/12/08 11:29:25;;;;;;;7.57;2.50;;;6.90;99.90;;;;;;5043825;28;20052;-63
2021/12/08 11:31:56;;;;;;;9.45;2.28;;;;;;;;;;5042210;28;20088;-62
2021/12/08 11:34:27;;;;;;;7.20;2.55;;;6.40;99.90;;;;;;5038672;28;20041;-62
2021/12/08 11:36:55;;;;;;;6.22;2.83;;;;;;;;;;5043584;28;20045;-62
2021/12/08 11:39:28;;;;;;;9.30;3.03;;;;;;;;;;5028290;28;20056;-65
2021/12/08 11:41:55;;;;;;;7.28;2.40;;;;;;;;;;5047219;28;20398;-62
2021/12/08 11:44:29;;;;;;;7.22;2.53;;;6.60;99.90;;;;;;5047481;28;20067;-63
2021/12/08 11:47:04;;;;;;;4.47;1.90;;;6.30;99.90;;;;;;5047290;28;20113;-62
2021/12/08 11:49:30;;;;;;;10.60;2.45;;;6.50;99.90;;;;;;5046023;28;20084;-62
2021/12/08 11:52:00;;;;;;;10.52;2.78;;;6.30;99.90;;;;;;5044916;28;20061;-59
2021/12/08 11:54:34;;;;;;;9.57;2.63;;;;;;;;;;5045434;28;20491;-59
2021/12/08 11:57:10;;;;;;;7.70;2.40;;;6.30;99.90;;;;;;5045002;28;20475;-62
2021/12/08 11:59:44;;;;;;;4.38;1.77;;;6.60;99.90;;;;;;5040771;28;20056;-61
2021/12/08 12:02:13;;;;;;;9.20;3.25;;;;;;;;;;5046072;28;20069;-61
2021/12/08 12:04:40;;;;;;;9.68;2.35;;;6.50;99.90;;;;;;5027383;28;20052;-59
2021/12/08 12:07:07;;;;;;;5.28;2.20;;;6.40;99.90;;;;;;5045485;28;20033;-61
2021/12/08 12:09:34;;;;;;;6.50;2.50;;;6.40;99.90;;;;;;5034216;28;20056;-62
2021/12/08 12:12:00;;;;;;;11.85;2.80;;;;;;;;;;5034234;28;20081;-62
2021/12/08 12:14:28;;;;;;;8.27;3.40;;;;;;;;;;5041551;28;20065;-61
2021/12/08 12:16:54;;;;;;;7.15;2.58;;;6.40;99.90;;;;;;5047266;28;20037;-62
2021/12/08 12:19:22;;;;;;;8.48;2.50;;;6.30;99.90;;;;;;5041216;28;20044;-64
2021/12/08 12:22:25;;;;;;;6.32;2.40;;;6.40;99.90;;;;;;5038711;28;20049;-65
2021/12/08 12:25:13;;;;;;;10.38;2.97;;;6.50;99.90;;;;;;5030292;28;20041;-64
2021/12/08 12:27:54;;;;;;;7.22;2.45;;;6.30;99.90;;;;;;5030286;28;20053;-63
2021/12/08 12:31:00;;;;;;;6.70;2.67;;;6.50;99.90;;;;;;5032743;28;20404;-63
2021/12/08 12:33:26;;;;;;;7.43;2.30;;;6.40;99.90;;;;;;5033322;28;20073;-64
2021/12/08 12:35:55;;;;;;;6.15;2.10;;;6.30;99.90;;;;;;5031718;28;20106;-65
2021/12/08 12:38:38;;;;;;;5.80;2.40;;;;;;;;;;5031706;28;20057;-64
2021/12/08 12:41:06;;;;;;;12.18;2.72;;;;;;;;;;5032774;28;20048;-65
2021/12/08 12:43:37;;;;;;;7.85;3.60;;;6.50;99.90;;;;;;5032461;28;20049;-64
2021/12/08 12:46:05;;;;;;;6.95;2.92;;;6.60;99.90;;;;;;5038662;28;20037;-62
2021/12/08 12:48:31;;;;;;;7.18;3.60;;;;;;;;;;5041201;28;20071;-64
2021/12/08 12:51:03;;;;;;;7.43;3.47;;;;;;;;;;5040795;28;20048;-63
2021/12/08 12:53:53;;;;;;;6.85;3.10;;;;;;;;;;5043219;28;20037;-61
2021/12/08 12:56:38;;;;;;;13.02;3.90;;;6.70;99.90;;;;;;5040800;28;20053;-59
2021/12/08 12:59:17;;;;;;;9.00;3.42;;;6.60;99.90;;;;;;5041431;28;20517;-60
2021/12/08 13:01:44;;;;;;;6.88;3.40;;;;;;;;;;5042903;28;20044;-63
2021/12/08 13:04:20;;;;;;;9.10;3.90;;;6.50;99.90;;;;;;5042376;28;20352;-62
2021/12/08 13:06:50;;;;;;;10.52;3.75;;;;;;;;;;5025281;28;20049;-62
2021/12/08 13:09:36;;;;;;;9.18;3.55;;;6.50;99.90;;;;;;5041542;28;20091;-61
2021/12/08 13:12:02;;;;;;;;;;;;;;;;;;5039369;28;20049;-61
2021/12/08 13:14:30;;;;;;;11.98;3.97;;;;;;;;;;5037948;28;20692;-60
2021/12/08 13:17:17;;;;;;;12.57;4.90;;;6.70;99.90;;;;;;5044066;28;20042;-58
2021/12/08 13:19:48;;;;;;;12.35;4.15;;;;;;;;;;5040315;28;20037;-59
2021/12/08 13:22:33;;;;;;;10.95;4.78;;;;;;;;;;5044455;28;20379;-65
2021/12/08 13:25:00;;;;;;;7.07;3.80;;;6.70;99.90;;;;;;5039926;28;20064;-58
2021/12/08 13:27:29;;;;;;;7.43;3.60;;;6.50;99.90;;;;;;5043070;28;20525;-58
2021/12/08 13:30:27;;;;;;;7.28;3.33;;;6.70;99.90;;;;;;5041894;28;20044;-63
2021/12/08 13:32:57;;;;;;;10.48;3.92;;;;;;;;;;5032692;28;20053;-61
2021/12/08 13:35:34;;;;;;;8.90;4.53;;;6.70;99.90;;;;;;5039829;28;20052;-61
2021/12/08 13:38:00;;;;;;;10.32;3.65;;;6.70;99.90;;;;;;5041788;28;20056;-61
2021/12/08 13:40:51;;;;;;;13.25;3.60;;;6.60;99.90;;;;;;5040354;28;20037;-61
2021/12/08 13:43:37;;;;;;;8.13;3.95;;;;;;;;;;5044445;28;20044;-60
2021/12/08 13:46:04;;;;;;;9.93;3.38;;;;;;;;;;5044095;28;20655;-60
2021/12/08 13:48:30;;;;;;;11.20;3.45;;;6.70;99.90;;;;;;5038076;28;20514;-62
2021/12/08 13:51:16;;;;;;;8.27;3.30;;;;;;;;;;5033374;28;20045;-60
2021/12/08 13:53:42;;;;;;;;;;;;;;;;;;5044482;28;20033;-61
2021/12/08 13:56:07;;;;;;;8.02;4.05;;;6.60;99.90;;;;;;5038637;28;19917;-63
2021/12/08 13:58:39;;;;;;;10.27;4.00;;;6.60;99.90;;;;;;5037152;28;20044;-61
2021/12/08 14:01:13;;;;;;;5.65;2.45;;;6.40;99.90;;;;;;5040333;28;20036;-62
2021/12/08 14:03:44;;;;;;;7.70;2.95;;;6.50;99.90;;;;;;5036393;28;20058;-61
2021/12/08 14:06:11;;;;;;;13.20;3.13;;;6.30;99.90;;;;;;5043351;28;20040;-61
2021/12/08 14:08:45;;;;;;;8.00;3.67;;;6.40;99.90;;;;;;5015062;28;20460;-65
2021/12/08 14:11:14;;;;;;;12.88;4.10;;;6.20;99.90;;;;;;5012948;28;20539;-61
2021/12/08 14:13:51;;;;;;;8.00;2.97;;;6.20;99.90;;;;;;5030038;28;20104;-60
2021/12/08 14:16:23;;;;;;;7.70;2.80;;;6.20;99.90;;;;;;5038188;28;20079;-61
2021/12/08 14:18:49;;;;;;;8.40;3.35;;;;;;;;;;5032355;28;20060;-62
2021/12/08 14:21:20;;;;;;;7.57;2.78;;;6.10;99.90;;;;;;5032445;28;20045;-61
2021/12/08 14:24:10;;;;;;;8.05;3.13;;;6.10;99.90;;;;;;5032104;28;20557;-61